sensor_id;sensor_type;location;lat;lon;timestamp;pressure;altitude;pressure_sealevel;temperature;humidity
16461;BME280;8341;42.048;24.650;2023-12-20T00:02:19;97588.22;;;6.07;72.05
16461;BME280;8341;42.048;24.650;2023-12-20T00:04:46;97573.03;;;5.97;71.63
16461;BME280;8341;42.048;24.650;2023-12-20T00:07:13;97585.28;;;6.02;71.65
16461;BME280;8341;42.048;24.650;2023-12-20T00:09:39;97569.25;;;5.95;72.60
16461;BME280;8341;42.048;24.650;2023-12-20T00:12:08;97580.09;;;5.95;72.28
16461;BME280;8341;42.048;24.650;2023-12-20T00:14:35;97577.66;;;5.72;72.48
16461;BME280;8341;42.048;24.650;2023-12-20T00:17:02;97574.28;;;5.67;73.19
16461;BME280;8341;42.048;24.650;2023-12-20T00:19:29;97575.91;;;5.65;73.80
16461;BME280;8341;42.048;24.650;2023-12-20T00:21:56;97574.63;;;5.69;73.49
16461;BME280;8341;42.048;24.650;2023-12-20T00:24:24;97566.81;;;5.72;72.70
16461;BME280;8341;42.048;24.650;2023-12-20T00:26:51;97573.94;;;5.65;74.17
16461;BME280;8341;42.048;24.650;2023-12-20T00:29:19;97577.88;;;5.64;74.65
16461;BME280;8341;42.048;24.650;2023-12-20T00:31:46;97580.22;;;5.62;75.76
16461;BME280;8341;42.048;24.650;2023-12-20T00:34:13;97570.59;;;5.61;75.61
16461;BME280;8341;42.048;24.650;2023-12-20T00:36:40;97568.13;;;5.54;74.92
16461;BME280;8341;42.048;24.650;2023-12-20T00:39:07;97568.53;;;5.53;75.16
16461;BME280;8341;42.048;24.650;2023-12-20T00:41:33;97565.25;;;5.45;77.48
16461;BME280;8341;42.048;24.650;2023-12-20T00:44:00;97563.09;;;5.40;77.24
16461;BME280;8341;42.048;24.650;2023-12-20T00:46:29;97554.50;;;5.29;77.05
16461;BME280;8341;42.048;24.650;2023-12-20T00:48:56;97555.41;;;5.26;76.15
16461;BME280;8341;42.048;24.650;2023-12-20T00:51:23;97552.78;;;5.23;76.34
16461;BME280;8341;42.048;24.650;2023-12-20T00:53:50;97552.00;;;5.22;76.19
16461;BME280;8341;42.048;24.650;2023-12-20T00:56:20;97552.22;;;5.15;76.68
16461;BME280;8341;42.048;24.650;2023-12-20T00:58:46;97540.84;;;5.07;78.20
16461;BME280;8341;42.048;24.650;2023-12-20T01:01:13;97531.44;;;5.12;79.37
16461;BME280;8341;42.048;24.650;2023-12-20T01:03:41;97535.16;;;5.18;78.17
16461;BME280;8341;42.048;24.650;2023-12-20T01:06:08;97527.00;;;5.05;77.42
16461;BME280;8341;42.048;24.650;2023-12-20T01:08:35;97521.38;;;5.13;76.57
16461;BME280;8341;42.048;24.650;2023-12-20T01:11:03;97512.00;;;5.17;76.47
16461;BME280;8341;42.048;24.650;2023-12-20T01:13:30;97511.66;;;5.15;77.20
16461;BME280;8341;42.048;24.650;2023-12-20T01:15:57;97509.28;;;5.17;78.07
16461;BME280;8341;42.048;24.650;2023-12-20T01:18:24;97516.53;;;5.20;77.83
16461;BME280;8341;42.048;24.650;2023-12-20T01:20:52;97508.13;;;5.18;78.14
16461;BME280;8341;42.048;24.650;2023-12-20T01:23:19;97504.09;;;5.10;78.91
16461;BME280;8341;42.048;24.650;2023-12-20T01:25:46;97493.56;;;4.99;79.02
16461;BME280;8341;42.048;24.650;2023-12-20T01:28:13;97488.81;;;5.03;81.24
16461;BME280;8341;42.048;24.650;2023-12-20T01:30:39;97488.59;;;4.98;80.73
16461;BME280;8341;42.048;24.650;2023-12-20T01:33:06;97491.34;;;5.11;80.72
16461;BME280;8341;42.048;24.650;2023-12-20T01:35:33;97482.22;;;5.04;81.90
16461;BME280;8341;42.048;24.650;2023-12-20T01:38:01;97487.72;;;5.01;80.17
16461;BME280;8341;42.048;24.650;2023-12-20T01:40:28;97477.66;;;4.89;79.48
16461;BME280;8341;42.048;24.650;2023-12-20T01:42:58;97477.31;;;4.87;79.81
16461;BME280;8341;42.048;24.650;2023-12-20T01:45:25;97465.00;;;4.86;81.04
16461;BME280;8341;42.048;24.650;2023-12-20T01:47:53;97464.53;;;4.75;80.46
16461;BME280;8341;42.048;24.650;2023-12-20T01:50:20;97468.28;;;4.65;81.24
16461;BME280;8341;42.048;24.650;2023-12-20T01:52:47;97463.00;;;4.74;80.82
16461;BME280;8341;42.048;24.650;2023-12-20T01:55:19;97458.09;;;4.56;81.69
16461;BME280;8341;42.048;24.650;2023-12-20T01:57:47;97447.84;;;4.64;82.08
16461;BME280;8341;42.048;24.650;2023-12-20T02:00:14;97450.31;;;4.58;82.72
16461;BME280;8341;42.048;24.650;2023-12-20T02:02:43;97450.00;;;4.56;81.91
16461;BME280;8341;42.048;24.650;2023-12-20T02:05:11;97455.66;;;4.46;83.03
16461;BME280;8341;42.048;24.650;2023-12-20T02:07:38;97441.97;;;4.53;82.56
16461;BME280;8341;42.048;24.650;2023-12-20T02:10:05;97439.59;;;4.55;82.05
16461;BME280;8341;42.048;24.650;2023-12-20T02:12:33;97435.34;;;4.41;83.21
16461;BME280;8341;42.048;24.650;2023-12-20T02:15:00;97434.56;;;4.57;82.48
16461;BME280;8341;42.048;24.650;2023-12-20T02:17:27;97431.66;;;4.64;81.90
16461;BME280;8341;42.048;24.650;2023-12-20T02:19:54;97425.28;;;4.70;81.57
16461;BME280;8341;42.048;24.650;2023-12-20T02:22:22;97423.66;;;4.73;81.32
16461;BME280;8341;42.048;24.650;2023-12-20T02:24:49;97423.66;;;4.73;80.69
16461;BME280;8341;42.048;24.650;2023-12-20T02:27:18;97419.16;;;4.70;80.21
16461;BME280;8341;42.048;24.650;2023-12-20T02:29:47;97420.75;;;4.67;79.54
16461;BME280;8341;42.048;24.650;2023-12-20T02:32:14;97422.81;;;4.76;79.92
16461;BME280;8341;42.048;24.650;2023-12-20T02:34:41;97431.78;;;4.73;81.72
16461;BME280;8341;42.048;24.650;2023-12-20T02:37:08;97416.09;;;4.68;81.94
16461;BME280;8341;42.048;24.650;2023-12-20T02:39:36;97417.16;;;4.58;81.07
16461;BME280;8341;42.048;24.650;2023-12-20T02:42:03;97411.81;;;4.41;81.81
16461;BME280;8341;42.048;24.650;2023-12-20T02:44:30;97399.81;;;4.42;81.64
16461;BME280;8341;42.048;24.650;2023-12-20T02:46:57;97411.41;;;4.56;81.78
16461;BME280;8341;42.048;24.650;2023-12-20T02:49:23;97399.97;;;4.52;82.46
16461;BME280;8341;42.048;24.650;2023-12-20T02:51:50;97403.47;;;4.36;83.15
16461;BME280;8341;42.048;24.650;2023-12-20T02:54:17;97400.16;;;4.44;82.30
16461;BME280;8341;42.048;24.650;2023-12-20T02:56:45;97392.72;;;4.49;83.65
16461;BME280;8341;42.048;24.650;2023-12-20T02:59:12;97397.16;;;4.55;81.31
16461;BME280;8341;42.048;24.650;2023-12-20T03:01:41;97380.41;;;4.48;81.26
16461;BME280;8341;42.048;24.650;2023-12-20T03:04:09;97383.63;;;4.42;81.31
16461;BME280;8341;42.048;24.650;2023-12-20T03:06:36;97384.41;;;4.56;81.40
16461;BME280;8341;42.048;24.650;2023-12-20T03:09:03;97387.69;;;4.63;80.17
16461;BME280;8341;42.048;24.650;2023-12-20T03:11:29;97389.63;;;4.63;80.24
16461;BME280;8341;42.048;24.650;2023-12-20T03:13:58;97389.53;;;4.66;81.69
16461;BME280;8341;42.048;24.650;2023-12-20T03:16:24;97388.53;;;4.60;81.23
16461;BME280;8341;42.048;24.650;2023-12-20T03:18:51;97380.34;;;4.64;80.76
16461;BME280;8341;42.048;24.650;2023-12-20T03:21:18;97373.41;;;4.63;81.50
16461;BME280;8341;42.048;24.650;2023-12-20T03:23:45;97373.16;;;4.57;81.39
16461;BME280;8341;42.048;24.650;2023-12-20T03:26:11;97372.22;;;4.64;80.92
16461;BME280;8341;42.048;24.650;2023-12-20T03:28:38;97366.38;;;4.65;81.23
16461;BME280;8341;42.048;24.650;2023-12-20T03:31:07;97373.63;;;4.68;81.60
16461;BME280;8341;42.048;24.650;2023-12-20T03:33:33;97369.22;;;4.62;81.75
16461;BME280;8341;42.048;24.650;2023-12-20T03:36:00;97368.00;;;4.63;80.86
16461;BME280;8341;42.048;24.650;2023-12-20T03:38:27;97363.81;;;4.62;80.36
16461;BME280;8341;42.048;24.650;2023-12-20T03:40:54;97366.50;;;4.62;81.91
16461;BME280;8341;42.048;24.650;2023-12-20T03:43:20;97366.28;;;4.56;82.59
16461;BME280;8341;42.048;24.650;2023-12-20T03:45:47;97377.38;;;4.46;81.46
16461;BME280;8341;42.048;24.650;2023-12-20T03:48:15;97369.47;;;4.38;81.16
16461;BME280;8341;42.048;24.650;2023-12-20T03:50:42;97377.25;;;4.36;81.14
16461;BME280;8341;42.048;24.650;2023-12-20T03:53:09;97371.44;;;4.22;81.12
16461;BME280;8341;42.048;24.650;2023-12-20T03:55:35;97370.84;;;4.30;81.21
16461;BME280;8341;42.048;24.650;2023-12-20T03:58:02;97362.59;;;4.21;81.26
16461;BME280;8341;42.048;24.650;2023-12-20T04:00:29;97357.34;;;4.30;80.72
16461;BME280;8341;42.048;24.650;2023-12-20T04:02:56;97359.53;;;4.35;79.76
16461;BME280;8341;42.048;24.650;2023-12-20T04:05:24;97360.81;;;4.31;82.69
16461;BME280;8341;42.048;24.650;2023-12-20T04:07:51;97356.06;;;4.35;80.76
16461;BME280;8341;42.048;24.650;2023-12-20T04:10:18;97360.13;;;4.27;81.59
16461;BME280;8341;42.048;24.650;2023-12-20T04:12:44;97363.78;;;4.20;82.15
16461;BME280;8341;42.048;24.650;2023-12-20T04:15:11;97366.81;;;4.22;82.91
16461;BME280;8341;42.048;24.650;2023-12-20T04:17:38;97365.97;;;4.25;81.48
16461;BME280;8341;42.048;24.650;2023-12-20T04:20:06;97359.28;;;4.01;82.43
16461;BME280;8341;42.048;24.650;2023-12-20T04:22:34;97354.44;;;4.09;82.63
16461;BME280;8341;42.048;24.650;2023-12-20T04:25:01;97352.19;;;4.07;81.50
16461;BME280;8341;42.048;24.650;2023-12-20T04:27:28;97354.41;;;3.96;82.87
16461;BME280;8341;42.048;24.650;2023-12-20T04:29:55;97351.34;;;4.10;82.53
16461;BME280;8341;42.048;24.650;2023-12-20T04:32:22;97349.53;;;4.20;82.31
16461;BME280;8341;42.048;24.650;2023-12-20T04:34:49;97342.84;;;4.24;82.23
16461;BME280;8341;42.048;24.650;2023-12-20T04:37:15;97334.66;;;4.28;80.79
16461;BME280;8341;42.048;24.650;2023-12-20T04:39:44;97336.16;;;4.29;80.45
16461;BME280;8341;42.048;24.650;2023-12-20T04:42:10;97336.94;;;4.29;82.06
16461;BME280;8341;42.048;24.650;2023-12-20T04:44:37;97326.34;;;4.22;81.86
16461;BME280;8341;42.048;24.650;2023-12-20T04:47:04;97335.97;;;4.23;81.21
16461;BME280;8341;42.048;24.650;2023-12-20T04:49:30;97334.66;;;4.28;80.77
16461;BME280;8341;42.048;24.650;2023-12-20T04:51:57;97324.50;;;4.32;80.89
16461;BME280;8341;42.048;24.650;2023-12-20T04:54:24;97330.69;;;4.32;80.68
16461;BME280;8341;42.048;24.650;2023-12-20T04:56:52;97316.38;;;4.19;80.87
16461;BME280;8341;42.048;24.650;2023-12-20T04:59:19;97315.78;;;4.28;80.27
16461;BME280;8341;42.048;24.650;2023-12-20T05:01:45;97323.75;;;4.31;81.61
16461;BME280;8341;42.048;24.650;2023-12-20T05:04:12;97311.78;;;4.32;80.85
16461;BME280;8341;42.048;24.650;2023-12-20T05:06:39;97316.66;;;4.37;80.09
16461;BME280;8341;42.048;24.650;2023-12-20T05:09:06;97309.53;;;4.31;79.81
16461;BME280;8341;42.048;24.650;2023-12-20T05:11:34;97314.19;;;4.43;80.59
16461;BME280;8341;42.048;24.650;2023-12-20T05:14:02;97310.16;;;4.35;80.21
16461;BME280;8341;42.048;24.650;2023-12-20T05:16:29;97305.09;;;4.37;79.83
16461;BME280;8341;42.048;24.650;2023-12-20T05:18:56;97301.41;;;4.31;81.15
16461;BME280;8341;42.048;24.650;2023-12-20T05:21:24;97308.75;;;4.30;82.07
16461;BME280;8341;42.048;24.650;2023-12-20T05:23:50;97297.50;;;3.91;83.01
16461;BME280;8341;42.048;24.650;2023-12-20T05:26:17;97302.28;;;3.99;82.54
16461;BME280;8341;42.048;24.650;2023-12-20T05:28:44;97293.97;;;3.94;82.73
16461;BME280;8341;42.048;24.650;2023-12-20T05:31:12;97300.13;;;3.94;83.00
16461;BME280;8341;42.048;24.650;2023-12-20T05:33:39;97287.81;;;3.93;82.99
16461;BME280;8341;42.048;24.650;2023-12-20T05:36:06;97292.34;;;3.96;82.33
16461;BME280;8341;42.048;24.650;2023-12-20T05:38:36;97268.31;;;3.73;83.14
16461;BME280;8341;42.048;24.650;2023-12-20T05:41:03;97278.41;;;3.85;83.54
16461;BME280;8341;42.048;24.650;2023-12-20T05:43:30;97263.34;;;3.71;83.52
16461;BME280;8341;42.048;24.650;2023-12-20T05:45:57;97275.72;;;3.85;84.37
16461;BME280;8341;42.048;24.650;2023-12-20T05:48:25;97273.69;;;3.73;84.08
16461;BME280;8341;42.048;24.650;2023-12-20T05:50:53;97278.97;;;3.64;84.18
16461;BME280;8341;42.048;24.650;2023-12-20T05:53:19;97275.56;;;3.76;83.34
16461;BME280;8341;42.048;24.650;2023-12-20T05:55:46;97267.53;;;3.72;83.56
16461;BME280;8341;42.048;24.650;2023-12-20T05:58:13;97272.00;;;3.79;83.17
16461;BME280;8341;42.048;24.650;2023-12-20T06:00:40;97268.94;;;3.64;83.32
16461;BME280;8341;42.048;24.650;2023-12-20T06:03:06;97258.84;;;3.81;82.56
16461;BME280;8341;42.048;24.650;2023-12-20T06:05:35;97267.25;;;3.83;83.30
16461;BME280;8341;42.048;24.650;2023-12-20T06:08:01;97259.31;;;3.92;83.51
16461;BME280;8341;42.048;24.650;2023-12-20T06:10:28;97257.31;;;3.80;84.80
16461;BME280;8341;42.048;24.650;2023-12-20T06:12:55;97255.63;;;3.86;84.31
16461;BME280;8341;42.048;24.650;2023-12-20T06:15:24;97266.75;;;3.88;83.83
16461;BME280;8341;42.048;24.650;2023-12-20T06:17:50;97267.47;;;3.76;83.82
16461;BME280;8341;42.048;24.650;2023-12-20T06:20:17;97260.19;;;3.89;82.83
16461;BME280;8341;42.048;24.650;2023-12-20T06:22:45;97263.34;;;4.00;82.95
16461;BME280;8341;42.048;24.650;2023-12-20T06:25:12;97258.16;;;4.06;82.82
16461;BME280;8341;42.048;24.650;2023-12-20T06:27:39;97261.75;;;4.15;82.96
16461;BME280;8341;42.048;24.650;2023-12-20T06:30:07;97259.28;;;4.08;83.81
16461;BME280;8341;42.048;24.650;2023-12-20T06:32:35;97271.03;;;4.14;84.19
16461;BME280;8341;42.048;24.650;2023-12-20T06:35:03;97263.47;;;4.09;82.70
16461;BME280;8341;42.048;24.650;2023-12-20T06:37:31;97260.00;;;4.09;82.35
16461;BME280;8341;42.048;24.650;2023-12-20T06:39:59;97255.69;;;4.11;82.40
16461;BME280;8341;42.048;24.650;2023-12-20T06:42:26;97248.91;;;4.19;82.67
16461;BME280;8341;42.048;24.650;2023-12-20T06:44:53;97247.28;;;4.09;81.83
16461;BME280;8341;42.048;24.650;2023-12-20T06:47:20;97255.50;;;4.18;82.58
16461;BME280;8341;42.048;24.650;2023-12-20T06:49:47;97248.56;;;4.05;82.48
16461;BME280;8341;42.048;24.650;2023-12-20T06:52:14;97248.41;;;4.37;81.70
16461;BME280;8341;42.048;24.650;2023-12-20T06:54:40;97246.06;;;4.52;82.27
16461;BME280;8341;42.048;24.650;2023-12-20T06:57:09;97252.72;;;4.60;82.02
16461;BME280;8341;42.048;24.650;2023-12-20T06:59:38;97241.94;;;4.60;83.82
16461;BME280;8341;42.048;24.650;2023-12-20T07:02:05;97252.31;;;4.74;83.32
16461;BME280;8341;42.048;24.650;2023-12-20T07:04:32;97243.88;;;4.84;83.04
16461;BME280;8341;42.048;24.650;2023-12-20T07:06:59;97251.13;;;5.00;82.28
16461;BME280;8341;42.048;24.650;2023-12-20T07:09:26;97242.00;;;5.06;81.91
16461;BME280;8341;42.048;24.650;2023-12-20T07:11:53;97242.44;;;5.18;80.61
16461;BME280;8341;42.048;24.650;2023-12-20T07:14:21;97227.41;;;5.04;81.66
16461;BME280;8341;42.048;24.650;2023-12-20T07:16:48;97245.34;;;5.23;81.18
16461;BME280;8341;42.048;24.650;2023-12-20T07:19:15;97250.81;;;5.32;79.99
16461;BME280;8341;42.048;24.650;2023-12-20T07:21:42;97248.53;;;5.43;80.01
16461;BME280;8341;42.048;24.650;2023-12-20T07:24:09;97242.00;;;5.53;79.23
16461;BME280;8341;42.048;24.650;2023-12-20T07:26:36;97240.03;;;5.66;78.83
16461;BME280;8341;42.048;24.650;2023-12-20T07:29:05;97232.91;;;5.82;79.24
16461;BME280;8341;42.048;24.650;2023-12-20T07:31:33;97228.34;;;5.91;79.33
16461;BME280;8341;42.048;24.650;2023-12-20T07:34:00;97226.59;;;5.97;79.13
16461;BME280;8341;42.048;24.650;2023-12-20T07:36:27;97231.16;;;6.09;77.94
16461;BME280;8341;42.048;24.650;2023-12-20T07:38:53;97227.47;;;6.16;77.16
16461;BME280;8341;42.048;24.650;2023-12-20T07:41:20;97238.78;;;6.23;76.43
16461;BME280;8341;42.048;24.650;2023-12-20T07:43:49;97219.09;;;6.32;76.29
16461;BME280;8341;42.048;24.650;2023-12-20T07:46:15;97221.88;;;6.41;75.62
16461;BME280;8341;42.048;24.650;2023-12-20T07:48:44;97218.31;;;6.53;76.62
16461;BME280;8341;42.048;24.650;2023-12-20T07:51:11;97221.56;;;6.70;74.40
16461;BME280;8341;42.048;24.650;2023-12-20T07:53:38;97218.09;;;6.78;73.26
16461;BME280;8341;42.048;24.650;2023-12-20T07:56:13;97217.66;;;6.80;72.71
16461;BME280;8341;42.048;24.650;2023-12-20T07:58:40;97212.91;;;6.93;74.29
16461;BME280;8341;42.048;24.650;2023-12-20T08:01:07;97210.47;;;6.95;73.86
16461;BME280;8341;42.048;24.650;2023-12-20T08:03:34;97211.09;;;6.99;74.22
16461;BME280;8341;42.048;24.650;2023-12-20T08:06:03;97217.59;;;7.11;73.78
16461;BME280;8341;42.048;24.650;2023-12-20T08:08:30;97209.31;;;7.14;73.50
16461;BME280;8341;42.048;24.650;2023-12-20T08:10:56;97206.75;;;7.11;71.70
16461;BME280;8341;42.048;24.650;2023-12-20T08:13:25;97204.94;;;7.08;75.13
16461;BME280;8341;42.048;24.650;2023-12-20T08:15:52;97209.00;;;7.12;73.99
16461;BME280;8341;42.048;24.650;2023-12-20T08:18:21;97203.91;;;7.32;81.88
16461;BME280;8341;42.048;24.650;2023-12-20T08:20:48;97208.00;;;7.46;80.78
16461;BME280;8341;42.048;24.650;2023-12-20T08:23:16;97203.16;;;7.41;76.18
16461;BME280;8341;42.048;24.650;2023-12-20T08:25:43;97192.63;;;7.52;73.20
16461;BME280;8341;42.048;24.650;2023-12-20T08:28:10;97194.72;;;7.66;71.87
16461;BME280;8341;42.048;24.650;2023-12-20T08:30:37;97199.56;;;7.62;71.57
16461;BME280;8341;42.048;24.650;2023-12-20T08:33:04;97190.53;;;7.65;71.05
16461;BME280;8341;42.048;24.650;2023-12-20T08:35:33;97193.06;;;7.23;71.84
16461;BME280;8341;42.048;24.650;2023-12-20T08:37:59;97184.41;;;6.88;73.19
16461;BME280;8341;42.048;24.650;2023-12-20T08:40:28;97183.78;;;6.84;73.44
16461;BME280;8341;42.048;24.650;2023-12-20T08:42:54;97187.22;;;6.76;75.07
16461;BME280;8341;42.048;24.650;2023-12-20T08:45:21;97175.38;;;6.82;75.21
16461;BME280;8341;42.048;24.650;2023-12-20T08:47:48;97172.25;;;6.53;75.59
16461;BME280;8341;42.048;24.650;2023-12-20T08:50:15;97161.25;;;6.48;77.30
16461;BME280;8341;42.048;24.650;2023-12-20T08:52:42;97151.75;;;6.34;78.41
16461;BME280;8341;42.048;24.650;2023-12-20T08:55:09;97151.34;;;6.63;77.64
16461;BME280;8341;42.048;24.650;2023-12-20T08:57:37;97142.03;;;6.64;76.67
16461;BME280;8341;42.048;24.650;2023-12-20T09:00:05;97133.38;;;6.87;80.37
16461;BME280;8341;42.048;24.650;2023-12-20T09:02:33;97132.94;;;7.07;79.44
16461;BME280;8341;42.048;24.650;2023-12-20T09:05:01;97122.84;;;7.16;77.73
16461;BME280;8341;42.048;24.650;2023-12-20T09:07:28;97123.59;;;7.35;77.00
16461;BME280;8341;42.048;24.650;2023-12-20T09:09:57;97119.97;;;7.56;80.46
16461;BME280;8341;42.048;24.650;2023-12-20T09:12:25;97097.38;;;7.32;75.47
16461;BME280;8341;42.048;24.650;2023-12-20T09:14:53;97104.59;;;7.53;74.44
16461;BME280;8341;42.048;24.650;2023-12-20T09:17:20;97107.72;;;7.61;75.41
16461;BME280;8341;42.048;24.650;2023-12-20T09:19:48;97090.88;;;7.47;74.52
16461;BME280;8341;42.048;24.650;2023-12-20T09:22:17;97100.34;;;7.70;74.52
16461;BME280;8341;42.048;24.650;2023-12-20T09:24:45;97095.47;;;7.83;77.17
16461;BME280;8341;42.048;24.650;2023-12-20T09:27:12;97097.44;;;7.83;77.84
16461;BME280;8341;42.048;24.650;2023-12-20T09:29:39;97090.59;;;7.96;77.87
16461;BME280;8341;42.048;24.650;2023-12-20T09:32:07;97094.16;;;8.11;80.51
16461;BME280;8341;42.048;24.650;2023-12-20T09:34:34;97083.44;;;8.17;77.75
16461;BME280;8341;42.048;24.650;2023-12-20T09:37:02;97072.56;;;8.17;74.25
16461;BME280;8341;42.048;24.650;2023-12-20T09:39:29;97074.72;;;8.04;72.65
16461;BME280;8341;42.048;24.650;2023-12-20T09:42:02;97071.91;;;7.98;72.89
16461;BME280;8341;42.048;24.650;2023-12-20T09:44:29;97060.69;;;7.73;74.02
16461;BME280;8341;42.048;24.650;2023-12-20T09:46:57;97053.47;;;7.61;75.36
16461;BME280;8341;42.048;24.650;2023-12-20T09:49:27;97059.53;;;7.97;73.81
16461;BME280;8341;42.048;24.650;2023-12-20T09:51:54;97035.38;;;7.99;72.17
16461;BME280;8341;42.048;24.650;2023-12-20T09:54:23;97046.50;;;8.10;71.09
16461;BME280;8341;42.048;24.650;2023-12-20T09:56:50;97052.47;;;8.24;70.43
16461;BME280;8341;42.048;24.650;2023-12-20T09:59:17;97037.69;;;8.57;73.24
16461;BME280;8341;42.048;24.650;2023-12-20T10:01:44;97036.72;;;8.84;73.76
16461;BME280;8341;42.048;24.650;2023-12-20T10:04:12;97033.78;;;9.11;74.32
16461;BME280;8341;42.048;24.650;2023-12-20T10:06:41;97034.38;;;9.44;74.58
16461;BME280;8341;42.048;24.650;2023-12-20T10:09:09;97019.47;;;9.55;73.42
16461;BME280;8341;42.048;24.650;2023-12-20T10:11:36;97015.75;;;9.87;73.30
16461;BME280;8341;42.048;24.650;2023-12-20T10:14:04;97010.69;;;9.80;65.12
16461;BME280;8341;42.048;24.650;2023-12-20T10:16:32;97004.63;;;10.05;68.19
16461;BME280;8341;42.048;24.650;2023-12-20T10:19:00;96998.03;;;10.26;70.58
16461;BME280;8341;42.048;24.650;2023-12-20T10:21:27;96999.53;;;10.47;70.24
16461;BME280;8341;42.048;24.650;2023-12-20T10:23:57;96985.41;;;10.69;69.76
16461;BME280;8341;42.048;24.650;2023-12-20T10:26:25;96989.63;;;10.90;65.91
16461;BME280;8341;42.048;24.650;2023-12-20T10:28:54;96990.16;;;11.20;67.72
16461;BME280;8341;42.048;24.650;2023-12-20T10:31:28;96981.28;;;11.25;63.03
16461;BME280;8341;42.048;24.650;2023-12-20T10:33:57;96981.00;;;10.51;61.92
16461;BME280;8341;42.048;24.650;2023-12-20T10:36:26;96968.31;;;10.28;63.94
16461;BME280;8341;42.048;24.650;2023-12-20T10:38:54;96965.84;;;9.46;65.73
16461;BME280;8341;42.048;24.650;2023-12-20T10:41:25;96958.25;;;9.35;66.80
16461;BME280;8341;42.048;24.650;2023-12-20T10:43:54;96958.63;;;9.43;66.37
16461;BME280;8341;42.048;24.650;2023-12-20T10:46:21;96968.09;;;9.48;66.12
16461;BME280;8341;42.048;24.650;2023-12-20T10:48:51;96951.13;;;9.38;66.30
16461;BME280;8341;42.048;24.650;2023-12-20T10:51:20;96956.28;;;9.36;66.25
16461;BME280;8341;42.048;24.650;2023-12-20T10:53:48;96946.47;;;9.24;66.33
16461;BME280;8341;42.048;24.650;2023-12-20T10:56:17;96942.34;;;9.14;66.94
16461;BME280;8341;42.048;24.650;2023-12-20T10:58:46;96932.47;;;9.02;68.42
16461;BME280;8341;42.048;24.650;2023-12-20T11:01:15;96927.78;;;8.88;70.29
16461;BME280;8341;42.048;24.650;2023-12-20T11:03:49;96917.84;;;9.14;69.48
16461;BME280;8341;42.048;24.650;2023-12-20T11:06:33;96917.94;;;8.90;69.01
16461;BME280;8341;42.048;24.650;2023-12-20T11:09:12;96911.00;;;9.04;68.68
16461;BME280;8341;42.048;24.650;2023-12-20T11:11:56;96909.19;;;9.30;66.34
16461;BME280;8341;42.048;24.650;2023-12-20T11:14:33;96918.34;;;9.62;64.37
16461;BME280;8341;42.048;24.650;2023-12-20T11:17:08;96899.03;;;9.45;66.56
16461;BME280;8341;42.048;24.650;2023-12-20T11:19:38;96898.72;;;9.08;70.45
16461;BME280;8341;42.048;24.650;2023-12-20T11:22:05;96897.75;;;9.26;70.78
16461;BME280;8341;42.048;24.650;2023-12-20T11:24:33;96889.50;;;9.20;70.32
16461;BME280;8341;42.048;24.650;2023-12-20T11:27:03;96890.44;;;9.17;69.99
16461;BME280;8341;42.048;24.650;2023-12-20T11:29:33;96881.66;;;8.93;71.07
16461;BME280;8341;42.048;24.650;2023-12-20T11:32:02;96880.97;;;9.13;69.63
16461;BME280;8341;42.048;24.650;2023-12-20T11:34:32;96877.88;;;9.20;70.51
16461;BME280;8341;42.048;24.650;2023-12-20T11:36:59;96864.63;;;9.27;66.26
16461;BME280;8341;42.048;24.650;2023-12-20T11:39:27;96865.47;;;9.33;70.04
16461;BME280;8341;42.048;24.650;2023-12-20T11:41:56;96867.34;;;9.27;67.90
16461;BME280;8341;42.048;24.650;2023-12-20T11:44:25;96866.19;;;9.49;70.19
16461;BME280;8341;42.048;24.650;2023-12-20T11:46:54;96855.97;;;9.43;68.87
16461;BME280;8341;42.048;24.650;2023-12-20T11:49:24;96857.91;;;9.58;67.85
16461;BME280;8341;42.048;24.650;2023-12-20T11:51:51;96859.09;;;9.36;70.96
16461;BME280;8341;42.048;24.650;2023-12-20T11:54:18;96853.88;;;9.18;71.25
16461;BME280;8341;42.048;24.650;2023-12-20T11:56:45;96849.72;;;9.23;71.87
16461;BME280;8341;42.048;24.650;2023-12-20T11:59:12;96841.69;;;8.99;72.79
16461;BME280;8341;42.048;24.650;2023-12-20T12:01:39;96848.44;;;8.89;73.87
16461;BME280;8341;42.048;24.650;2023-12-20T12:04:07;96839.28;;;8.72;73.91
16461;BME280;8341;42.048;24.650;2023-12-20T12:06:34;96828.78;;;8.65;74.36
16461;BME280;8341;42.048;24.650;2023-12-20T12:09:01;96831.59;;;8.56;73.68
16461;BME280;8341;42.048;24.650;2023-12-20T12:11:29;96819.88;;;8.50;75.22
16461;BME280;8341;42.048;24.650;2023-12-20T12:13:56;96821.75;;;8.58;74.34
16461;BME280;8341;42.048;24.650;2023-12-20T12:16:23;96825.50;;;8.46;74.49
16461;BME280;8341;42.048;24.650;2023-12-20T12:18:55;96808.53;;;8.51;75.20
16461;BME280;8341;42.048;24.650;2023-12-20T12:21:24;96808.38;;;8.55;74.56
16461;BME280;8341;42.048;24.650;2023-12-20T12:23:51;96807.13;;;8.56;75.17
16461;BME280;8341;42.048;24.650;2023-12-20T12:26:18;96804.59;;;8.67;74.99
16461;BME280;8341;42.048;24.650;2023-12-20T12:28:45;96808.16;;;8.73;73.16
16461;BME280;8341;42.048;24.650;2023-12-20T12:31:15;96803.94;;;8.72;73.45
16461;BME280;8341;42.048;24.650;2023-12-20T12:33:42;96799.91;;;8.82;73.31
16461;BME280;8341;42.048;24.650;2023-12-20T12:36:10;96802.72;;;8.73;73.35
16461;BME280;8341;42.048;24.650;2023-12-20T12:38:38;96807.66;;;8.89;72.52
16461;BME280;8341;42.048;24.650;2023-12-20T12:41:05;96797.88;;;9.12;72.08
16461;BME280;8341;42.048;24.650;2023-12-20T12:43:32;96798.41;;;9.30;71.87
16461;BME280;8341;42.048;24.650;2023-12-20T12:45:59;96796.97;;;9.35;70.86
16461;BME280;8341;42.048;24.650;2023-12-20T12:48:27;96799.34;;;9.48;70.53
16461;BME280;8341;42.048;24.650;2023-12-20T12:50:54;96795.28;;;9.37;69.78
16461;BME280;8341;42.048;24.650;2023-12-20T12:53:24;96794.91;;;9.30;71.02
16461;BME280;8341;42.048;24.650;2023-12-20T12:55:53;96790.44;;;9.27;69.95
16461;BME280;8341;42.048;24.650;2023-12-20T12:58:21;96785.50;;;9.11;70.65
16461;BME280;8341;42.048;24.650;2023-12-20T13:00:47;96783.50;;;9.26;70.96
16461;BME280;8341;42.048;24.650;2023-12-20T13:03:14;96788.59;;;9.18;70.90
16461;BME280;8341;42.048;24.650;2023-12-20T13:05:42;96778.00;;;9.40;70.73
16461;BME280;8341;42.048;24.650;2023-12-20T13:08:09;96782.44;;;9.58;70.37
16461;BME280;8341;42.048;24.650;2023-12-20T13:10:37;96772.44;;;9.70;69.74
16461;BME280;8341;42.048;24.650;2023-12-20T13:13:05;96770.94;;;9.69;68.78